createdAt,value
2018-04-20T00:00:24.459Z,36.37
2018-04-20T00:02:50.808Z,35.77
2018-04-20T00:05:17.124Z,30.90
2018-04-20T00:07:43.525Z,30.03
2018-04-20T00:10:10.643Z,32.33
2018-04-20T00:12:37.005Z,34.77
2018-04-20T00:15:04.088Z,37.87
2018-04-20T00:17:30.373Z,35.37
2018-04-20T00:19:56.969Z,33.63
2018-04-20T00:22:23.299Z,37.73
2018-04-20T00:24:49.680Z,41.77
2018-04-20T00:27:16.858Z,33.80
2018-04-20T00:29:43.297Z,34.37
2018-04-20T00:32:09.604Z,35.10
2018-04-20T00:34:36.640Z,45.50
2018-04-20T00:37:03.782Z,34.07
2018-04-20T00:39:30.178Z,32.77
2018-04-20T00:41:56.500Z,42.70
2018-04-20T00:44:29.680Z,31.73
2018-04-20T00:46:56.068Z,36.30
2018-04-20T00:49:22.404Z,36.10
2018-04-20T00:51:48.731Z,31.83
2018-04-20T00:54:23.368Z,31.50
2018-04-20T00:56:50.465Z,40.93
2018-04-20T00:59:16.825Z,33.10
2018-04-20T01:01:43.156Z,35.17
2018-04-20T01:04:09.485Z,39.43
2018-04-20T01:06:35.842Z,33.00
2018-04-20T01:09:02.787Z,35.00
2018-04-20T01:11:29.058Z,33.23
2018-04-20T01:13:55.252Z,35.90
2018-04-20T01:16:22.199Z,36.93
2018-04-20T01:18:49.192Z,38.40
2018-04-20T01:21:16.370Z,39.80
2018-04-20T01:23:42.603Z,37.63
2018-04-20T01:26:09.548Z,43.10
2018-04-20T01:28:35.804Z,36.17
2018-04-20T01:31:02.773Z,38.17
2018-04-20T01:33:29.052Z,38.10
2018-04-20T01:35:55.211Z,36.10
2018-04-20T01:38:21.356Z,33.13
2018-04-20T01:40:47.495Z,37.97
2018-04-20T01:43:13.675Z,37.40
2018-04-20T01:45:40.623Z,35.40
2018-04-20T01:48:07.571Z,33.97
2018-04-20T01:50:34.543Z,43.33
2018-04-20T01:53:00.759Z,35.30
2018-04-20T01:55:26.936Z,38.47
2018-04-20T01:57:53.141Z,36.23
2018-04-20T02:00:19.367Z,40.00
2018-04-20T02:03:00.570Z,37.77
2018-04-20T02:05:26.736Z,40.03
2018-04-20T02:07:53.695Z,37.50
2018-04-20T02:10:19.939Z,39.30
2018-04-20T02:12:46.176Z,40.67
2018-04-20T02:15:12.464Z,38.13
2018-04-20T02:17:39.444Z,41.77
2018-04-20T02:20:05.612Z,41.53
2018-04-20T02:22:31.759Z,43.77
2018-04-20T02:24:58.727Z,46.37
2018-04-20T02:27:25.007Z,47.63
2018-04-20T02:29:51.916Z,42.60
2018-04-20T02:32:18.167Z,41.30
2018-04-20T02:34:44.415Z,42.27
2018-04-20T02:37:10.657Z,42.03
2018-04-20T02:39:36.889Z,41.07
2018-04-20T02:42:09.588Z,42.00
2018-04-20T02:44:35.827Z,37.80
2018-04-20T02:47:02.040Z,41.80
2018-04-20T02:49:28.216Z,41.23
2018-04-20T02:51:54.487Z,42.60
2018-04-20T02:54:21.501Z,44.00
2018-04-20T02:56:47.663Z,41.40
2018-04-20T02:59:14.719Z,48.87
2018-04-20T03:01:41.696Z,41.97
2018-04-20T03:04:07.947Z,39.60
2018-04-20T03:06:34.199Z,39.27
2018-04-20T03:09:00.608Z,49.30
2018-04-20T03:11:26.864Z,44.63
2018-04-20T03:13:53.087Z,42.27
2018-04-20T03:16:19.335Z,44.73
2018-04-20T03:18:46.292Z,46.20
2018-04-20T03:21:12.487Z,45.07
2018-04-20T03:23:38.672Z,45.53
2018-04-20T03:26:04.875Z,46.10
2018-04-20T03:28:31.047Z,44.30
2018-04-20T03:30:58.020Z,46.47
2018-04-20T03:33:24.164Z,46.83
2018-04-20T03:35:51.120Z,40.77
2018-04-20T03:38:17.324Z,38.17
2018-04-20T03:40:43.512Z,45.40
2018-04-20T03:43:09.797Z,41.10
2018-04-20T03:45:36.715Z,42.40
2018-04-20T03:48:02.994Z,41.27
2018-04-20T03:50:29.195Z,40.43
2018-04-20T03:52:56.147Z,44.50
2018-04-20T03:55:23.137Z,45.00
2018-04-20T03:57:49.701Z,43.00
2018-04-20T04:00:15.956Z,47.70
2018-04-20T04:02:42.875Z,44.57
2018-04-20T04:05:09.104Z,45.00
2018-04-20T04:07:35.309Z,45.60
2018-04-20T04:10:01.587Z,45.87
2018-04-20T04:12:27.723Z,45.53
2018-04-20T04:14:53.873Z,49.77
2018-04-20T04:17:32.305Z,55.17
2018-04-20T04:20:10.852Z,49.30
2018-04-20T04:22:49.952Z,53.70
2018-04-20T04:25:28.347Z,48.50
2018-04-20T04:28:07.028Z,50.80
2018-04-20T04:30:34.013Z,48.63
2018-04-20T04:33:00.336Z,52.27
2018-04-20T04:35:26.516Z,50.13
2018-04-20T04:37:52.739Z,50.77
2018-04-20T04:40:18.867Z,47.80
2018-04-20T04:42:45.044Z,48.23
2018-04-20T04:45:11.264Z,51.17
2018-04-20T04:47:37.512Z,56.07
2018-04-20T04:50:03.765Z,50.30
2018-04-20T04:52:30.067Z,46.20
2018-04-20T04:54:58.151Z,49.70
2018-04-20T04:57:24.304Z,50.83
2018-04-20T04:59:50.653Z,50.87
2018-04-20T05:02:17.633Z,56.13
2018-04-20T05:04:43.803Z,58.20
2018-04-20T05:07:10.191Z,56.67
2018-04-20T05:09:37.184Z,56.57
2018-04-20T05:12:03.467Z,56.13
2018-04-20T05:14:29.623Z,60.07
2018-04-20T05:16:55.908Z,51.40
2018-04-20T05:19:22.210Z,55.80
2018-04-20T05:21:49.179Z,52.40
2018-04-20T05:24:15.361Z,62.03
2018-04-20T05:26:41.635Z,58.83
2018-04-20T05:29:07.916Z,50.97
2018-04-20T05:31:34.083Z,53.83
2018-04-20T05:34:01.051Z,50.40
2018-04-20T05:36:27.176Z,45.70
2018-04-20T05:38:53.410Z,50.70
2018-04-20T05:41:19.600Z,52.03
2018-04-20T05:43:46.573Z,51.67
2018-04-20T05:46:12.787Z,46.47
2018-04-20T05:48:39.800Z,45.20
2018-04-20T05:51:05.998Z,43.30
2018-04-20T05:53:32.226Z,42.30
2018-04-20T05:55:58.515Z,40.27
2018-04-20T05:58:25.423Z,40.37
2018-04-20T06:01:20.760Z,46.30
2018-04-20T06:03:47.721Z,43.87
2018-04-20T06:06:14.720Z,39.10
2018-04-20T06:08:40.921Z,43.10
2018-04-20T06:11:07.224Z,42.43
2018-04-20T06:13:34.140Z,42.70
2018-04-20T06:16:00.351Z,41.17
2018-04-20T06:18:26.621Z,42.10
2018-04-20T06:20:53.569Z,38.13
2018-04-20T06:23:20.619Z,40.47
2018-04-20T06:25:47.664Z,38.80
2018-04-20T06:28:14.649Z,37.47
2018-04-20T06:30:40.795Z,37.27
2018-04-20T06:33:07.012Z,36.90
2018-04-20T06:35:33.147Z,36.87
2018-04-20T06:37:59.310Z,36.53
2018-04-20T06:40:25.543Z,33.03
2018-04-20T06:42:52.478Z,35.80
2018-04-20T06:45:19.367Z,37.13
2018-04-20T06:47:45.616Z,31.47
2018-04-20T06:50:11.830Z,32.83
2018-04-20T06:52:38.029Z,37.60
2018-04-20T06:55:04.220Z,34.00
2018-04-20T06:57:30.463Z,36.20
2018-04-20T06:59:57.483Z,38.67
2018-04-20T07:02:23.663Z,29.40
2018-04-20T07:04:49.944Z,30.30
2018-04-20T07:07:16.165Z,28.17
2018-04-20T07:09:43.203Z,30.90
2018-04-20T07:12:09.356Z,30.33
2018-04-20T07:14:35.544Z,29.97
2018-04-20T07:17:01.748Z,28.97
2018-04-20T07:19:28.048Z,30.70
2018-04-20T07:21:54.235Z,33.33
2018-04-20T07:24:20.534Z,28.37
2018-04-20T07:26:46.659Z,26.97
2018-04-20T07:29:12.864Z,30.50
2018-04-20T07:31:39.096Z,34.33
2018-04-20T07:34:06.110Z,31.20
2018-04-20T07:36:32.299Z,32.70
2018-04-20T07:38:58.515Z,29.33
2018-04-20T07:41:24.726Z,30.10
2018-04-20T07:43:50.837Z,34.90
2018-04-20T07:46:17.085Z,29.10
2018-04-20T07:48:44.015Z,25.53
2018-04-20T07:51:10.402Z,24.23
2018-04-20T07:53:36.611Z,23.87
2018-04-20T07:56:02.783Z,26.03
2018-04-20T07:58:29.012Z,20.50
2018-04-20T08:00:55.287Z,19.83
2018-04-20T08:03:21.499Z,21.37
2018-04-20T08:05:48.471Z,19.13
2018-04-20T08:08:14.741Z,21.40
2018-04-20T08:10:40.970Z,21.27
2018-04-20T08:13:08.000Z,20.83
2018-04-20T08:15:34.244Z,17.73
2018-04-20T08:18:00.476Z,18.17
2018-04-20T08:20:26.815Z,16.57
2018-04-20T08:22:53.028Z,16.33
2018-04-20T08:25:19.208Z,18.20
2018-04-20T08:27:45.596Z,12.63
2018-04-20T08:30:12.620Z,13.30
2018-04-20T08:32:38.903Z,17.53
2018-04-20T08:35:05.103Z,15.40
2018-04-20T08:37:31.527Z,15.40
2018-04-20T08:39:57.692Z,17.23
2018-04-20T08:42:24.647Z,18.50
2018-04-20T08:44:50.862Z,14.23
2018-04-20T08:47:17.748Z,13.27
2018-04-20T08:49:43.943Z,14.33
2018-04-20T08:52:10.852Z,15.40
2018-04-20T08:54:36.999Z,12.67
2018-04-20T08:57:04.017Z,16.20
2018-04-20T08:59:30.183Z,14.07
2018-04-20T09:01:57.395Z,11.80
2018-04-20T09:04:23.611Z,15.63
2018-04-20T09:06:50.568Z,18.97
2018-04-20T09:09:16.826Z,11.00
2018-04-20T09:11:43.784Z,10.23
2018-04-20T09:14:10.852Z,9.63
2018-04-20T09:16:37.075Z,12.03
2018-04-20T09:19:03.529Z,15.00
2018-04-20T09:21:29.756Z,14.70
2018-04-20T09:23:55.892Z,11.07
2018-04-20T09:26:22.054Z,13.83
2018-04-20T09:28:48.360Z,12.07
2018-04-20T09:31:14.545Z,10.97
2018-04-20T09:33:40.772Z,15.43
2018-04-20T09:36:07.052Z,10.73
2018-04-20T09:38:33.277Z,9.53
2018-04-20T09:40:59.627Z,9.73
2018-04-20T09:43:26.592Z,9.87
2018-04-20T09:45:52.840Z,6.70
2018-04-20T09:48:19.091Z,5.43
2018-04-20T09:50:45.340Z,6.53
2018-04-20T09:53:11.503Z,11.30
2018-04-20T09:55:38.492Z,5.80
2018-04-20T09:58:04.696Z,10.17
2018-04-20T10:00:36.885Z,8.40
2018-04-20T10:03:03.074Z,8.00
2018-04-20T10:05:29.281Z,8.83
2018-04-20T10:07:55.491Z,8.40
2018-04-20T10:10:21.633Z,10.63
2018-04-20T10:12:47.831Z,12.07
2018-04-20T10:15:14.075Z,7.37
2018-04-20T10:17:40.589Z,9.87
2018-04-20T10:20:06.746Z,5.70
2018-04-20T10:22:32.905Z,7.73
2018-04-20T10:24:59.856Z,9.97
2018-04-20T10:27:26.125Z,5.47
2018-04-20T10:29:52.346Z,8.27
2018-04-20T10:32:18.551Z,18.57
2018-04-20T10:34:44.732Z,12.20
2018-04-20T10:37:10.912Z,7.80
2018-04-20T10:39:37.115Z,7.53
2018-04-20T10:42:03.388Z,8.30
2018-04-20T10:44:29.516Z,7.80
2018-04-20T10:46:55.826Z,5.97
2018-04-20T10:49:21.991Z,9.93
2018-04-20T10:51:48.268Z,7.37
2018-04-20T10:54:14.484Z,13.67
2018-04-20T10:56:40.793Z,8.20
2018-04-20T10:59:07.784Z,14.00
2018-04-20T11:01:34.045Z,12.10
2018-04-20T11:04:00.260Z,8.83
2018-04-20T11:06:26.516Z,14.73
2018-04-20T11:08:52.743Z,7.30
2018-04-20T11:11:18.887Z,10.17
2018-04-20T11:13:45.925Z,9.07
2018-04-20T11:16:12.084Z,8.77
2018-04-20T11:18:38.299Z,9.63
2018-04-20T11:21:05.298Z,6.50
2018-04-20T11:23:31.600Z,8.70
2018-04-20T11:25:57.801Z,7.10
2018-04-20T11:28:24.065Z,13.90
2018-04-20T11:30:50.293Z,11.80
2018-04-20T11:33:16.500Z,6.60
2018-04-20T11:35:43.491Z,9.80
2018-04-20T11:38:10.648Z,7.83
2018-04-20T11:40:36.880Z,6.87
2018-04-20T11:43:03.101Z,13.53
2018-04-20T11:45:29.320Z,9.87
2018-04-20T11:47:55.585Z,7.77
2018-04-20T11:50:21.856Z,9.50
2018-04-20T11:52:48.179Z,7.83
2018-04-20T11:55:14.350Z,10.77
2018-04-20T11:57:40.683Z,12.23
2018-04-20T12:00:06.975Z,8.67
2018-04-20T12:02:33.153Z,16.50
2018-04-20T12:04:59.310Z,8.93
2018-04-20T12:07:25.534Z,9.90
2018-04-20T12:09:51.687Z,8.20
2018-04-20T12:12:18.024Z,12.53
2018-04-20T12:14:44.183Z,9.83
2018-04-20T12:17:10.538Z,14.33
2018-04-20T12:19:37.475Z,7.47
2018-04-20T12:22:04.445Z,10.00
2018-04-20T12:24:30.693Z,8.40
2018-04-20T12:26:56.819Z,12.80
2018-04-20T12:29:22.989Z,8.80
2018-04-20T12:31:49.199Z,11.23
2018-04-20T12:34:16.539Z,10.07
2018-04-20T12:36:42.712Z,10.20
2018-04-20T12:39:09.722Z,12.57
2018-04-20T12:41:35.920Z,11.63
2018-04-20T12:44:02.155Z,10.70
2018-04-20T12:46:28.331Z,12.67
2018-04-20T12:48:54.540Z,13.63
2018-04-20T12:51:21.559Z,13.53
2018-04-20T12:53:47.827Z,14.00
2018-04-20T12:56:13.972Z,9.43
2018-04-20T12:58:41.035Z,13.90
2018-04-20T13:01:08.077Z,13.43
2018-04-20T13:03:35.000Z,11.80
2018-04-20T13:06:01.308Z,10.87
2018-04-20T13:08:27.452Z,11.23
2018-04-20T13:10:53.591Z,11.23
2018-04-20T13:13:19.784Z,20.00
2018-04-20T13:15:46.004Z,13.17
2018-04-20T13:18:12.304Z,7.27
2018-04-20T13:20:39.445Z,10.27
2018-04-20T13:23:05.816Z,10.30
2018-04-20T13:25:31.968Z,11.53
2018-04-20T13:27:58.353Z,10.40
2018-04-20T13:30:24.563Z,12.10
2018-04-20T13:32:51.539Z,14.10
2018-04-20T13:35:17.756Z,14.27
2018-04-20T13:37:43.920Z,14.20
2018-04-20T13:40:10.215Z,9.87
2018-04-20T13:42:36.368Z,12.83
2018-04-20T13:45:02.647Z,14.30
2018-04-20T13:47:29.600Z,12.50
2018-04-20T13:49:55.866Z,11.17
2018-04-20T13:52:22.176Z,10.50
2018-04-20T13:54:48.424Z,13.20
2018-04-20T13:57:14.648Z,12.37
2018-04-20T13:59:40.857Z,15.07
2018-04-20T14:02:07.064Z,14.90
2018-04-20T14:04:34.029Z,12.47
2018-04-20T14:07:01.212Z,11.20
2018-04-20T14:09:27.443Z,13.20
2018-04-20T14:11:53.672Z,18.50
2018-04-20T14:14:19.907Z,12.10
2018-04-20T14:16:46.289Z,15.93
2018-04-20T14:19:12.440Z,11.93
2018-04-20T14:21:38.587Z,12.50
2018-04-20T14:24:05.471Z,10.33
2018-04-20T14:26:32.347Z,11.43
2018-04-20T14:28:58.515Z,9.07
2018-04-20T14:31:24.659Z,9.63
2018-04-20T14:33:53.376Z,8.67
2018-04-20T14:36:19.541Z,9.50
2018-04-20T14:38:45.810Z,8.80
2018-04-20T14:41:12.696Z,8.70
2018-04-20T14:43:38.947Z,7.13
2018-04-20T14:46:05.071Z,11.00
2018-04-20T14:48:31.205Z,7.47
2018-04-20T14:50:57.390Z,5.70
2018-04-20T14:53:24.250Z,10.67
2018-04-20T14:55:51.546Z,5.00
2018-04-20T14:58:18.431Z,9.37
2018-04-20T15:00:44.588Z,7.73
2018-04-20T15:03:12.132Z,7.20
2018-04-20T15:05:38.267Z,5.30
2018-04-20T15:08:04.449Z,4.27
2018-04-20T15:10:30.692Z,12.13
2018-04-20T15:12:57.008Z,6.60
2018-04-20T15:15:23.212Z,6.83
2018-04-20T15:17:50.132Z,4.97
2018-04-20T15:20:16.307Z,7.43
2018-04-20T15:22:42.624Z,6.17
2018-04-20T15:25:09.551Z,4.63
2018-04-20T15:27:35.843Z,4.50
2018-04-20T15:30:02.545Z,5.07
2018-04-20T15:32:29.541Z,7.97
2018-04-20T15:34:55.854Z,5.70
2018-04-20T15:37:22.031Z,9.10
2018-04-20T15:39:48.294Z,5.00
2018-04-20T15:42:14.499Z,6.90
2018-04-20T15:44:41.668Z,6.10
2018-04-20T15:47:07.861Z,9.10
2018-04-20T15:49:34.086Z,6.10
2018-04-20T15:52:00.216Z,4.70
2018-04-20T15:54:26.441Z,5.20
2018-04-20T15:56:52.691Z,4.07
2018-04-20T15:59:19.676Z,7.90
2018-04-20T16:01:46.170Z,5.70
2018-04-20T16:04:13.036Z,9.23
2018-04-20T16:06:39.172Z,5.70
2018-04-20T16:09:05.405Z,4.00
2018-04-20T16:11:31.636Z,6.10
2018-04-20T16:13:57.928Z,6.53
2018-04-20T16:16:25.878Z,7.33
2018-04-20T16:18:52.101Z,7.80
2018-04-20T16:21:18.240Z,5.23
2018-04-20T16:23:45.179Z,7.10
2018-04-20T16:26:12.113Z,9.97
2018-04-20T16:28:38.232Z,7.00
2018-04-20T16:31:04.591Z,6.00
2018-04-20T16:33:31.532Z,5.87
2018-04-20T16:35:58.434Z,4.63
2018-04-20T16:38:24.724Z,6.70
2018-04-20T16:40:50.896Z,6.40
2018-04-20T16:43:17.329Z,9.63
2018-04-20T16:45:44.263Z,7.77
2018-04-20T16:48:10.476Z,6.43
2018-04-20T16:50:36.672Z,6.30
2018-04-20T16:53:03.608Z,5.10
2018-04-20T16:55:29.972Z,9.43
2018-04-20T16:57:56.091Z,7.50
2018-04-20T17:00:22.296Z,8.17
2018-04-20T17:02:49.179Z,10.80
2018-04-20T17:05:15.342Z,5.13
2018-04-20T17:07:41.488Z,6.83
2018-04-20T17:10:07.608Z,6.93
2018-04-20T17:12:33.934Z,11.07
2018-04-20T17:15:00.056Z,8.20
2018-04-20T17:17:26.279Z,8.40
2018-04-20T17:19:52.421Z,6.80
2018-04-20T17:22:18.712Z,9.00
2018-04-20T17:24:44.914Z,6.93
2018-04-20T17:27:11.040Z,8.70
2018-04-20T17:29:37.216Z,11.10
2018-04-20T17:32:05.616Z,10.30
2018-04-20T17:34:31.846Z,8.53
2018-04-20T17:36:59.089Z,14.13
2018-04-20T17:39:26.491Z,4.60
2018-04-20T17:41:54.046Z,13.20
2018-04-20T17:44:20.919Z,7.53
2018-04-20T17:46:47.157Z,11.33
2018-04-20T17:49:14.761Z,9.23
2018-04-20T17:51:42.493Z,7.77
2018-04-20T17:54:09.416Z,10.80
2018-04-20T17:56:36.566Z,9.17
2018-04-20T17:59:03.457Z,10.43
2018-04-20T18:01:29.683Z,15.63
2018-04-20T18:03:56.695Z,7.60
2018-04-20T18:06:24.340Z,7.17
2018-04-20T18:08:50.468Z,11.87
2018-04-20T18:11:16.615Z,10.80
2018-04-20T18:13:42.824Z,7.17
2018-04-20T18:16:08.978Z,11.53
2018-04-20T18:18:35.107Z,9.93
2018-04-20T18:21:01.247Z,16.40
2018-04-20T18:23:28.121Z,12.13
2018-04-20T18:25:54.345Z,10.93
2018-04-20T18:28:20.472Z,13.40
2018-04-20T18:30:47.353Z,12.00
2018-04-20T18:33:13.483Z,7.73
2018-04-20T18:35:39.639Z,9.87
2018-04-20T18:38:06.537Z,10.97
2018-04-20T18:40:32.660Z,7.93
2018-04-20T18:42:58.775Z,15.10
2018-04-20T18:45:24.919Z,18.23
2018-04-20T18:47:51.048Z,10.90
2018-04-20T18:50:17.308Z,6.47
2018-04-20T18:52:43.395Z,12.33
2018-04-20T18:55:09.568Z,11.53
2018-04-20T18:57:36.429Z,11.33
2018-04-20T19:00:02.720Z,13.23
2018-04-20T19:02:28.854Z,11.00
2018-04-20T19:04:55.972Z,9.63
2018-04-20T19:07:22.136Z,11.73
2018-04-20T19:09:49.049Z,9.00
2018-04-20T19:12:15.265Z,10.00
2018-04-20T19:14:41.399Z,16.17
2018-04-20T19:17:07.560Z,14.33
2018-04-20T19:19:34.707Z,18.90
2018-04-20T19:22:00.852Z,11.03
2018-04-20T19:24:27.712Z,9.57
2018-04-20T19:26:53.907Z,9.33
2018-04-20T19:29:20.809Z,7.93
2018-04-20T19:31:46.960Z,11.80
2018-04-20T19:34:13.110Z,10.10
2018-04-20T19:36:39.983Z,8.10
2018-04-20T19:39:06.919Z,11.40
2018-04-20T19:41:33.052Z,16.67
2018-04-20T19:43:59.229Z,11.30
2018-04-20T19:46:25.355Z,9.07
2018-04-20T19:48:51.485Z,14.50
2018-04-20T19:51:17.642Z,8.23
2018-04-20T19:53:43.760Z,16.70
2018-04-20T19:56:10.705Z,18.70
2018-04-20T19:58:37.586Z,23.77
2018-04-20T20:01:03.775Z,22.80
2018-04-20T20:03:30.733Z,18.17
2018-04-20T20:05:56.916Z,19.33
2018-04-20T20:08:23.106Z,13.70
2018-04-20T20:10:49.499Z,9.40
2018-04-20T20:13:16.408Z,17.93
2018-04-20T20:15:42.527Z,15.00
2018-04-20T20:18:08.712Z,16.60
2018-04-20T20:20:35.600Z,20.40
2018-04-20T20:23:01.740Z,23.70
2018-04-20T20:25:27.895Z,16.03
2018-04-20T20:27:54.773Z,26.23
2018-04-20T20:30:22.071Z,14.63
2018-04-20T20:32:48.211Z,15.13
2018-04-20T20:35:15.187Z,16.43
2018-04-20T20:37:41.434Z,19.23
2018-04-20T20:40:07.667Z,15.33
2018-04-20T20:42:33.800Z,15.90
2018-04-20T20:44:59.955Z,13.63
2018-04-20T20:47:26.224Z,18.10
2018-04-20T20:49:52.459Z,15.27
2018-04-20T20:52:19.399Z,15.30
2018-04-20T20:54:45.534Z,14.40
2018-04-20T20:57:12.563Z,15.00
2018-04-20T20:59:39.540Z,14.73
2018-04-20T21:02:05.795Z,15.87
2018-04-20T21:04:32.048Z,18.90
2018-04-20T21:06:58.272Z,15.00
2018-04-20T21:09:24.437Z,17.53
2018-04-20T21:11:50.691Z,10.40
2018-04-20T21:14:16.900Z,13.67
2018-04-20T21:16:43.052Z,20.00
2018-04-20T21:19:09.253Z,15.20
2018-04-20T21:21:35.378Z,13.63
2018-04-20T21:24:01.526Z,14.90
2018-04-20T21:26:27.684Z,15.80
2018-04-20T21:28:53.856Z,19.40
2018-04-20T21:31:19.983Z,13.80
2018-04-20T21:33:46.112Z,14.30
2018-04-20T21:36:12.260Z,17.40
2018-04-20T21:38:38.454Z,12.73
2018-04-20T21:41:04.596Z,16.70
2018-04-20T21:43:30.735Z,19.00
2018-04-20T21:45:56.885Z,15.43
2018-04-20T21:48:23.036Z,17.30
2018-04-20T21:50:49.909Z,18.67
2018-04-20T21:53:16.040Z,17.60
2018-04-20T21:55:42.175Z,22.07
2018-04-20T21:58:08.349Z,16.20
2018-04-20T22:00:34.612Z,45.50
2018-04-20T22:03:00.729Z,17.83
2018-04-20T22:05:27.744Z,17.17
2018-04-20T22:07:53.851Z,15.50
2018-04-20T22:10:20.568Z,15.20
2018-04-20T22:12:46.703Z,18.80
2018-04-20T22:15:12.841Z,17.80
2018-04-20T22:17:38.992Z,15.90
2018-04-20T22:20:05.932Z,18.57
2018-04-20T22:22:32.172Z,15.93
2018-04-20T22:24:58.402Z,21.10
2018-04-20T22:27:25.352Z,21.70
2018-04-20T22:29:52.223Z,18.03
2018-04-20T22:32:18.411Z,19.40
2018-04-20T22:34:44.673Z,16.40
2018-04-20T22:37:10.793Z,25.00
2018-04-20T22:39:36.916Z,21.40
2018-04-20T22:42:03.128Z,19.80
2018-04-20T22:44:30.039Z,17.33
2018-04-20T22:46:56.187Z,20.40
2018-04-20T22:49:22.368Z,17.30
2018-04-20T22:51:48.491Z,22.57
2018-04-20T22:54:14.635Z,30.20
2018-04-20T22:56:40.772Z,28.10
2018-04-20T22:59:07.669Z,27.90
2018-04-20T23:01:33.791Z,28.90
2018-04-20T23:03:59.972Z,25.80
2018-04-20T23:06:26.112Z,29.33
2018-04-20T23:08:52.244Z,24.57
2018-04-20T23:11:18.547Z,23.43
2018-04-20T23:13:44.751Z,24.10
2018-04-20T23:16:10.912Z,23.90
2018-04-20T23:18:37.047Z,22.10
2018-04-20T23:21:03.172Z,22.93
2018-04-20T23:23:29.312Z,23.13
2018-04-20T23:25:56.224Z,27.43
2018-04-20T23:28:22.355Z,28.63
2018-04-20T23:30:48.490Z,33.03
2018-04-20T23:33:14.696Z,28.33
2018-04-20T23:35:40.915Z,24.80
2018-04-20T23:38:07.075Z,31.37
2018-04-20T23:40:33.191Z,25.67
2018-04-20T23:42:59.339Z,25.43
2018-04-20T23:45:25.468Z,23.80
2018-04-20T23:48:07.304Z,26.07
2018-04-20T23:50:33.484Z,27.63
2018-04-20T23:55:36.214Z,32.13
2018-04-20T23:58:03.067Z,38.03
